createdAt,value
2018-01-29T00:00:38.106Z,87.4
2018-01-29T00:01:39.527Z,87.24
2018-01-29T00:02:38.952Z,87.27
2018-01-29T00:03:38.604Z,87.41
2018-01-29T00:04:38.099Z,87.5
2018-01-29T00:05:38.171Z,87.42
2018-01-29T00:06:38.743Z,87.67
2018-01-29T00:07:38.172Z,87.58
2018-01-29T00:08:38.905Z,87.67
2018-01-29T00:09:38.715Z,87.75
2018-01-29T00:10:38.236Z,87.76
2018-01-29T00:11:38.143Z,87.93
2018-01-29T00:12:38.149Z,87.8
2018-01-29T00:13:38.206Z,87.78
2018-01-29T00:14:38.223Z,87.97
2018-01-29T00:15:38.299Z,88
2018-01-29T00:16:38.198Z,88.15
2018-01-29T00:17:38.168Z,88.11
2018-01-29T00:18:38.110Z,88.26
2018-01-29T00:19:38.154Z,88.08
2018-01-29T00:20:38.150Z,88.01
2018-01-29T00:21:38.212Z,88.13
2018-01-29T00:22:38.136Z,88.28
2018-01-29T00:23:38.198Z,88.2
2018-01-29T00:24:38.150Z,88.28
2018-01-29T00:25:38.146Z,88.34
2018-01-29T00:26:38.194Z,88.23
2018-01-29T00:27:38.186Z,88.32
2018-01-29T00:28:38.104Z,88.31
2018-01-29T00:29:38.392Z,88.24
2018-01-29T00:30:37.278Z,88.18
2018-01-29T00:31:37.806Z,88.06
2018-01-29T00:32:37.180Z,87.98
2018-01-29T00:33:38.101Z,88.07
2018-01-29T00:34:37.244Z,88.08
2018-01-29T00:35:37.800Z,88.07
2018-01-29T00:36:37.687Z,88.17
2018-01-29T00:37:37.324Z,88.08
2018-01-29T00:38:37.199Z,88.18
2018-01-29T00:39:37.247Z,88.11
2018-01-29T00:40:38.044Z,88.02
2018-01-29T00:41:37.393Z,88.04
2018-01-29T00:42:37.308Z,88.04
2018-01-29T00:43:37.260Z,88.2
2018-01-29T00:44:37.192Z,88.17
2018-01-29T00:45:38.027Z,88.07
2018-01-29T00:46:37.286Z,88.17
2018-01-29T00:47:37.201Z,88.12
2018-01-29T00:48:37.922Z,88.08
2018-01-29T00:49:37.401Z,88.16
2018-01-29T00:50:37.212Z,88.11
2018-01-29T00:51:37.206Z,88.15
2018-01-29T00:52:37.265Z,88.14
2018-01-29T00:53:37.429Z,88.17
2018-01-29T00:54:38.309Z,88.33
2018-01-29T00:55:37.241Z,88.08
2018-01-29T00:56:37.160Z,88.14
2018-01-29T00:57:37.235Z,87.92
2018-01-29T00:58:37.400Z,87.97
2018-01-29T00:59:37.865Z,87.98
2018-01-29T01:00:37.260Z,88.17
2018-01-29T01:01:37.175Z,88.06
2018-01-29T01:02:37.477Z,87.91
2018-01-29T01:03:37.201Z,88.03
2018-01-29T01:04:37.193Z,88.06
2018-01-29T01:05:37.949Z,88
2018-01-29T01:06:37.198Z,88.05
2018-01-29T01:07:37.182Z,87.96
2018-01-29T01:08:37.330Z,87.96
2018-01-29T01:09:37.208Z,87.84
2018-01-29T01:10:37.747Z,87.78
2018-01-29T01:11:37.217Z,87.77
2018-01-29T01:12:37.230Z,87.64
2018-01-29T01:13:37.273Z,87.68
2018-01-29T01:14:37.777Z,87.75
2018-01-29T01:15:37.169Z,87.61
2018-01-29T01:16:37.208Z,87.44
2018-01-29T01:17:39.558Z,87.61
2018-01-29T01:18:37.178Z,87.5
2018-01-29T01:19:37.357Z,87.63
2018-01-29T01:20:38.054Z,87.55
2018-01-29T01:21:37.330Z,87.55
2018-01-29T01:22:37.235Z,87.5
2018-01-29T01:23:38.149Z,87.59
2018-01-29T01:24:37.832Z,87.53
2018-01-29T01:25:37.252Z,87.62
2018-01-29T01:26:39.329Z,87.43
2018-01-29T01:27:38.269Z,87.48
2018-01-29T01:28:37.816Z,87.6
2018-01-29T01:29:37.231Z,87.5
2018-01-29T01:30:37.258Z,87.49
2018-01-29T01:31:38.509Z,87.38
2018-01-29T01:32:37.273Z,87.42
2018-01-29T01:33:37.222Z,87.39
2018-01-29T01:34:37.212Z,87.34
2018-01-29T01:35:37.326Z,87.25
2018-01-29T01:36:38.569Z,87.47
2018-01-29T01:37:37.262Z,87.56
2018-01-29T01:38:37.896Z,87.33
2018-01-29T01:39:37.300Z,87.42
2018-01-29T01:40:37.340Z,87.42
2018-01-29T01:41:37.424Z,87.31
2018-01-29T01:42:37.834Z,87.48
2018-01-29T01:43:37.226Z,87.42
2018-01-29T01:44:37.270Z,87.35
2018-01-29T01:45:37.953Z,87.41
2018-01-29T01:46:37.394Z,87.43
2018-01-29T01:47:37.250Z,87.5
2018-01-29T01:48:37.440Z,87.44
2018-01-29T01:49:37.314Z,87.56
2018-01-29T01:50:37.304Z,87.59
2018-01-29T01:51:37.284Z,87.52
2018-01-29T01:52:37.273Z,87.58
2018-01-29T01:53:37.490Z,87.61
2018-01-29T01:54:37.236Z,87.68
2018-01-29T01:55:37.945Z,87.58
2018-01-29T01:56:37.335Z,87.59
2018-01-29T01:57:37.203Z,87.59
2018-01-29T01:58:37.267Z,87.82
2018-01-29T01:59:38.016Z,87.9
2018-01-29T02:00:37.453Z,87.91
2018-01-29T02:01:37.991Z,87.9
2018-01-29T02:02:37.281Z,87.95
2018-01-29T02:03:38.011Z,88.02
2018-01-29T02:04:38.052Z,87.99
2018-01-29T02:05:37.328Z,88.06
2018-01-29T02:06:37.314Z,88.09
2018-01-29T02:07:37.268Z,88.12
2018-01-29T02:08:38.225Z,88.16
2018-01-29T02:09:37.389Z,88.25
2018-01-29T02:10:37.301Z,88.32
2018-01-29T02:11:37.289Z,88.36
2018-01-29T02:12:40.058Z,88.36
2018-01-29T02:13:39.465Z,88.45
2018-01-29T02:14:37.350Z,88.55
2018-01-29T02:15:37.296Z,88.46
2018-01-29T02:16:37.272Z,88.46
2018-01-29T02:17:38.013Z,88.67
2018-01-29T02:18:37.263Z,88.62
2018-01-29T02:19:37.441Z,88.69
2018-01-29T02:20:37.651Z,88.79
2018-01-29T02:21:37.357Z,88.84
2018-01-29T02:22:37.318Z,88.79
2018-01-29T02:23:37.362Z,88.87
2018-01-29T02:24:37.352Z,88.91
2018-01-29T02:25:37.818Z,88.9
2018-01-29T02:26:37.449Z,88.89
2018-01-29T02:27:37.867Z,88.84
2018-01-29T02:28:37.990Z,88.77
2018-01-29T02:29:38.018Z,88.81
2018-01-29T02:30:37.427Z,88.74
2018-01-29T02:31:37.378Z,88.75
2018-01-29T02:32:37.750Z,88.91
2018-01-29T02:33:37.357Z,89.06
2018-01-29T02:34:37.378Z,88.97
2018-01-29T02:35:37.813Z,88.95
2018-01-29T02:36:37.989Z,89.09
2018-01-29T02:37:38.432Z,89.05
2018-01-29T02:38:37.354Z,89
2018-01-29T02:39:37.447Z,88.97
2018-01-29T02:40:37.381Z,88.92
2018-01-29T02:41:37.388Z,88.76
2018-01-29T02:42:37.461Z,88.88
2018-01-29T02:43:37.414Z,88.88
2018-01-29T02:44:37.430Z,88.77
2018-01-29T02:45:38.377Z,88.84
2018-01-29T02:46:37.434Z,88.75
2018-01-29T02:47:38.091Z,88.87
2018-01-29T02:48:37.332Z,88.77
2018-01-29T02:49:37.364Z,88.78
2018-01-29T02:50:37.367Z,88.8
2018-01-29T02:51:37.336Z,88.95
2018-01-29T02:52:37.416Z,88.95
2018-01-29T02:53:37.369Z,88.84
2018-01-29T02:54:37.457Z,88.95
2018-01-29T02:55:37.448Z,88.99
2018-01-29T02:56:38.350Z,88.89
2018-01-29T02:57:38.116Z,88.94
2018-01-29T02:58:38.280Z,89.05
2018-01-29T02:59:37.346Z,89.05
2018-01-29T03:00:38.131Z,89.14
2018-01-29T03:01:37.403Z,89.06
2018-01-29T03:02:37.356Z,89.1
2018-01-29T03:03:38.080Z,89.21
2018-01-29T03:04:37.429Z,89.21
2018-01-29T03:05:37.577Z,89.26
2018-01-29T03:06:38.151Z,89.26
2018-01-29T03:07:37.544Z,89.3
2018-01-29T03:08:37.348Z,89.22
2018-01-29T03:09:37.439Z,89.39
2018-01-29T03:10:37.441Z,89.08
2018-01-29T03:11:37.339Z,89.25
2018-01-29T03:12:37.570Z,89.24
2018-01-29T03:13:37.353Z,89.23
2018-01-29T03:14:37.578Z,89.33
2018-01-29T03:15:37.894Z,89.28
2018-01-29T03:16:38.420Z,89.29
2018-01-29T03:17:37.406Z,89.43
2018-01-29T03:18:38.120Z,89.35
2018-01-29T03:19:37.374Z,89.37
2018-01-29T03:20:37.414Z,89.26
2018-01-29T03:21:37.548Z,89.45
2018-01-29T03:22:38.042Z,89.29
2018-01-29T03:23:37.362Z,89.37
2018-01-29T03:24:37.379Z,89.64
2018-01-29T03:25:37.542Z,89.39
2018-01-29T03:26:37.406Z,89.5
2018-01-29T03:27:37.569Z,89.64
2018-01-29T03:28:38.032Z,89.64
2018-01-29T03:29:38.074Z,89.75
2018-01-29T03:30:37.464Z,89.79
2018-01-29T03:31:37.390Z,89.73
2018-01-29T03:32:37.601Z,89.75
2018-01-29T03:33:37.425Z,89.88
2018-01-29T03:34:37.374Z,89.79
2018-01-29T03:35:37.532Z,89.79
2018-01-29T03:36:37.572Z,89.89
2018-01-29T03:37:38.357Z,89.89
2018-01-29T03:38:37.474Z,89.88
2018-01-29T03:39:38.046Z,89.84
2018-01-29T03:40:38.207Z,89.75
2018-01-29T03:41:37.423Z,89.86
2018-01-29T03:42:38.520Z,90
2018-01-29T03:43:37.427Z,90.03
2018-01-29T03:44:37.453Z,89.88
2018-01-29T03:45:38.107Z,90.08
2018-01-29T03:46:37.388Z,89.91
2018-01-29T03:47:37.512Z,90.19
2018-01-29T03:48:37.506Z,90.24
2018-01-29T03:49:37.463Z,90.16
2018-01-29T03:50:37.473Z,90.11
2018-01-29T03:51:37.578Z,90.45
2018-01-29T03:52:38.781Z,90.33
2018-01-29T03:53:38.199Z,90.49
2018-01-29T03:54:37.449Z,90.46
2018-01-29T03:55:37.602Z,90.66
2018-01-29T03:56:38.211Z,90.42
2018-01-29T03:57:37.562Z,90.45
2018-01-29T03:58:37.573Z,90.79
2018-01-29T03:59:37.640Z,90.71
2018-01-29T04:00:37.583Z,90.66
2018-01-29T04:01:37.570Z,90.68
2018-01-29T04:02:38.250Z,90.67
2018-01-29T04:03:37.434Z,90.89
2018-01-29T04:04:37.423Z,90.89
2018-01-29T04:05:37.493Z,90.76
2018-01-29T04:06:37.500Z,90.8
2018-01-29T04:07:38.238Z,90.81
2018-01-29T04:08:37.451Z,90.83
2018-01-29T04:09:37.467Z,90.93
2018-01-29T04:10:38.245Z,91.07
2018-01-29T04:11:37.515Z,91.09
2018-01-29T04:12:37.630Z,91.15
2018-01-29T04:13:37.595Z,91.22
2018-01-29T04:14:38.173Z,91.16
2018-01-29T04:15:37.484Z,91.09
2018-01-29T04:16:38.183Z,91.06
2018-01-29T04:17:37.560Z,91.02
2018-01-29T04:18:37.488Z,91.18
2018-01-29T04:19:38.904Z,91.02
2018-01-29T04:20:37.510Z,90.94
2018-01-29T04:21:37.479Z,90.74
2018-01-29T04:22:37.511Z,90.81
2018-01-29T04:23:37.559Z,90.6
2018-01-29T04:24:37.439Z,90.61
2018-01-29T04:25:37.447Z,90.68
2018-01-29T04:26:37.436Z,90.79
2018-01-29T04:27:38.088Z,90.88
2018-01-29T04:28:37.454Z,90.73
2018-01-29T04:29:37.595Z,90.71
2018-01-29T04:30:37.670Z,90.69
2018-01-29T04:31:37.672Z,90.74
2018-01-29T04:32:37.591Z,90.61
2018-01-29T04:33:37.562Z,90.84
2018-01-29T04:34:38.618Z,90.57
2018-01-29T04:35:37.816Z,90.71
2018-01-29T04:36:37.515Z,90.55
2018-01-29T04:37:37.489Z,90.59
2018-01-29T04:38:37.539Z,90.76
2018-01-29T04:39:38.077Z,90.57
2018-01-29T04:40:37.505Z,90.41
2018-01-29T04:41:37.539Z,90.46
2018-01-29T04:42:37.592Z,90.39
2018-01-29T04:43:38.363Z,90.37
2018-01-29T04:44:37.550Z,90.26
2018-01-29T04:45:38.236Z,90.21
2018-01-29T04:46:37.562Z,90.19
2018-01-29T04:47:38.079Z,90.23
2018-01-29T04:48:37.475Z,90.21
2018-01-29T04:49:37.460Z,90.17
2018-01-29T04:50:38.259Z,90.13
2018-01-29T04:51:37.775Z,90.05
2018-01-29T04:52:37.476Z,90.09
2018-01-29T04:53:38.383Z,90.09
2018-01-29T04:54:38.562Z,90.11
2018-01-29T04:55:38.102Z,90
2018-01-29T04:56:37.720Z,90.14
2018-01-29T04:57:38.854Z,90.18
2018-01-29T04:58:38.410Z,90.16
2018-01-29T04:59:37.511Z,89.96
2018-01-29T05:00:37.620Z,89.99
2018-01-29T05:01:37.573Z,89.97
2018-01-29T05:02:37.649Z,89.9
2018-01-29T05:03:37.561Z,89.98
2018-01-29T05:04:38.183Z,89.95
2018-01-29T05:05:37.546Z,90.06
2018-01-29T05:06:38.233Z,90.06
2018-01-29T05:07:37.681Z,89.83
2018-01-29T05:08:37.535Z,89.89
2018-01-29T05:09:37.628Z,89.84
2018-01-29T05:10:37.557Z,89.88
2018-01-29T05:11:38.197Z,89.86
2018-01-29T05:15:37.636Z,89.93
2018-01-29T05:16:38.286Z,89.74
2018-01-29T05:17:37.563Z,89.82
2018-01-29T05:18:37.618Z,89.62
2018-01-29T05:19:37.590Z,89.58
2018-01-29T05:20:37.586Z,89.56
2018-01-29T05:21:37.592Z,89.58
2018-01-29T05:22:37.479Z,89.5
2018-01-29T05:23:37.525Z,89.57
2018-01-29T05:24:37.600Z,89.52
2018-01-29T05:25:38.301Z,89.44
2018-01-29T05:26:37.554Z,89.6
2018-01-29T05:27:37.640Z,89.61
2018-01-29T05:28:37.557Z,89.71
2018-01-29T05:29:38.288Z,89.53
2018-01-29T05:30:37.672Z,89.72
2018-01-29T05:31:38.309Z,89.63
2018-01-29T05:32:37.766Z,89.57
2018-01-29T05:33:37.740Z,89.68
2018-01-29T05:34:37.563Z,89.44
2018-01-29T05:35:37.550Z,89.5
2018-01-29T05:36:37.619Z,89.63
2018-01-29T05:37:37.551Z,89.5
2018-01-29T05:38:37.605Z,89.57
2018-01-29T05:39:38.290Z,89.41
2018-01-29T05:40:37.664Z,89.52
2018-01-29T05:41:37.873Z,89.57
2018-01-29T05:42:37.625Z,89.47
2018-01-29T05:43:37.604Z,89.28
2018-01-29T05:44:37.708Z,89.3
2018-01-29T05:45:37.783Z,89.32
2018-01-29T05:46:37.715Z,89.35
2018-01-29T05:47:39.686Z,89.32
2018-01-29T05:48:37.620Z,89.28
2018-01-29T05:49:37.592Z,89.22
2018-01-29T05:50:37.803Z,89.25
2018-01-29T05:51:37.682Z,89.27
2018-01-29T05:52:38.565Z,89.18
2018-01-29T05:53:37.647Z,89.14
2018-01-29T05:54:37.710Z,89.09
2018-01-29T05:55:37.561Z,89.2
2018-01-29T05:56:38.470Z,89.23
2018-01-29T05:57:37.795Z,89.2
2018-01-29T05:58:38.906Z,88.97
2018-01-29T06:01:57.239Z,89.12
2018-01-29T06:02:38.201Z,89.18
2018-01-29T06:03:38.272Z,89.17
2018-01-29T06:04:38.226Z,89.14
2018-01-29T06:05:38.134Z,89
2018-01-29T06:06:38.142Z,89.21
2018-01-29T06:07:39.133Z,88.97
2018-01-29T06:08:38.144Z,88.91
2018-01-29T06:09:38.135Z,88.96
2018-01-29T06:10:38.264Z,88.93
2018-01-29T06:11:40.613Z,88.91
2018-01-29T06:12:38.295Z,88.97
2018-01-29T06:13:38.133Z,88.77
2018-01-29T06:14:38.143Z,88.79
2018-01-29T06:15:38.114Z,88.86
2018-01-29T06:16:38.905Z,88.76
2018-01-29T06:17:38.194Z,88.62
2018-01-29T06:18:39.519Z,88.67
2018-01-29T06:19:38.163Z,88.48
2018-01-29T06:20:38.212Z,88.75
2018-01-29T06:21:38.162Z,88.58
2018-01-29T06:22:39.276Z,88.8
2018-01-29T06:23:38.163Z,88.79
2018-01-29T06:24:38.146Z,88.64
2018-01-29T06:25:38.247Z,88.66
2018-01-29T06:26:38.814Z,88.57
2018-01-29T06:27:38.219Z,88.6
2018-01-29T06:28:38.158Z,88.47
2018-01-29T06:29:38.128Z,88.53
2018-01-29T06:30:38.112Z,88.59
2018-01-29T06:31:39.107Z,88.47
2018-01-29T06:32:38.865Z,88.5
2018-01-29T06:33:38.241Z,88.37
2018-01-29T06:34:37.282Z,88.49
2018-01-29T06:35:37.144Z,88.42
2018-01-29T06:36:37.163Z,88.43
2018-01-29T06:37:37.226Z,88.57
2018-01-29T06:38:37.575Z,88.47
2018-01-29T06:39:37.207Z,88.61
2018-01-29T06:40:37.171Z,88.54
2018-01-29T06:41:37.150Z,88.55
2018-01-29T06:42:37.251Z,88.64
2018-01-29T06:43:37.256Z,88.55
2018-01-29T06:44:37.168Z,88.6
2018-01-29T06:45:37.151Z,88.67
2018-01-29T06:46:37.198Z,88.62
2018-01-29T06:47:37.170Z,88.63
2018-01-29T06:48:37.158Z,88.62
2018-01-29T06:49:37.168Z,88.68
2018-01-29T06:50:37.191Z,88.81
2018-01-29T06:51:37.212Z,88.82
2018-01-29T06:52:37.204Z,88.66
2018-01-29T06:53:37.202Z,88.67
2018-01-29T06:54:37.722Z,88.68
2018-01-29T06:55:37.204Z,88.63
2018-01-29T06:56:37.256Z,88.69
2018-01-29T06:57:37.200Z,88.75
2018-01-29T06:58:37.207Z,88.82
2018-01-29T06:59:37.178Z,88.7
2018-01-29T07:00:37.206Z,88.68
2018-01-29T07:01:37.269Z,88.75
2018-01-29T07:02:37.274Z,88.75
2018-01-29T07:03:37.576Z,88.82
2018-01-29T07:04:37.455Z,88.73
2018-01-29T07:05:37.462Z,88.71
2018-01-29T07:06:37.482Z,88.59
2018-01-29T07:07:37.534Z,88.77
2018-01-29T07:08:37.523Z,88.81
2018-01-29T07:09:37.486Z,88.83
2018-01-29T07:10:37.444Z,88.85
2018-01-29T07:11:37.485Z,88.81
2018-01-29T07:12:37.489Z,89
2018-01-29T07:13:37.507Z,88.91
2018-01-29T07:14:37.520Z,88.72
2018-01-29T07:15:37.475Z,88.74
2018-01-29T07:16:37.463Z,88.87
2018-01-29T07:17:37.501Z,88.86
2018-01-29T07:18:37.553Z,88.99
2018-01-29T07:19:37.490Z,88.98
2018-01-29T07:20:37.552Z,88.9
2018-01-29T07:21:37.472Z,88.91
2018-01-29T07:22:37.706Z,89.03
2018-01-29T07:23:37.615Z,89.03
2018-01-29T07:24:37.558Z,89.06
2018-01-29T07:25:37.512Z,89
2018-01-29T07:26:37.621Z,88.99
2018-01-29T07:27:37.513Z,88.86
2018-01-29T07:28:37.542Z,88.81
2018-01-29T07:29:37.457Z,88.84
2018-01-29T07:30:37.532Z,88.87
2018-01-29T07:31:37.477Z,89.05
2018-01-29T07:32:37.496Z,89.04
2018-01-29T07:33:37.655Z,88.96
2018-01-29T07:34:37.558Z,89.05
2018-01-29T07:35:37.548Z,89.14
2018-01-29T07:36:37.578Z,89.24
2018-01-29T07:37:37.568Z,89.11
2018-01-29T07:38:37.586Z,89.29
2018-01-29T07:39:37.592Z,89.34
2018-01-29T07:40:37.617Z,89.33
2018-01-29T07:41:37.589Z,89.13
2018-01-29T07:42:37.630Z,89.34
2018-01-29T07:43:37.574Z,89.2
2018-01-29T07:44:37.645Z,89.19
2018-01-29T07:45:37.615Z,89.26
2018-01-29T07:46:37.643Z,89.13
2018-01-29T07:47:37.576Z,89.18
2018-01-29T07:48:37.656Z,89.23
2018-01-29T07:49:37.622Z,88.87
2018-01-29T07:50:37.720Z,89.15
2018-01-29T07:51:37.618Z,89.14
2018-01-29T07:52:37.633Z,89.17
2018-01-29T07:53:37.638Z,89.09
2018-01-29T07:54:37.600Z,89.23
2018-01-29T07:55:37.650Z,89.13
2018-01-29T07:56:37.626Z,89.14
2018-01-29T07:57:37.634Z,89.17
2018-01-29T07:58:37.605Z,89.25
2018-01-29T07:59:37.596Z,89.35
2018-01-29T08:00:37.616Z,89.27
2018-01-29T08:01:37.593Z,89.37
2018-01-29T08:02:37.632Z,89.15
2018-01-29T08:03:37.716Z,89.22
2018-01-29T08:04:37.683Z,89.23
2018-01-29T08:05:37.662Z,89.39
2018-01-29T08:06:37.645Z,89.36
2018-01-29T08:07:37.700Z,89.54
2018-01-29T08:08:37.646Z,89.43
2018-01-29T08:09:37.698Z,89.43
2018-01-29T08:10:37.704Z,89.38
2018-01-29T08:11:37.729Z,89.61
2018-01-29T08:12:37.725Z,89.65
2018-01-29T08:13:37.657Z,89.63
2018-01-29T08:14:37.649Z,89.53
2018-01-29T08:15:37.655Z,89.49
2018-01-29T08:16:37.662Z,89.43
2018-01-29T08:17:37.642Z,89.52
2018-01-29T08:18:37.714Z,89.35
2018-01-29T08:19:37.683Z,89.61
2018-01-29T08:20:37.653Z,89.53
2018-01-29T08:21:37.769Z,89.7
2018-01-29T08:22:37.695Z,89.53
2018-01-29T08:23:37.723Z,89.88
2018-01-29T08:24:37.653Z,89.69
2018-01-29T08:25:37.666Z,89.62
2018-01-29T08:26:37.665Z,89.66
2018-01-29T08:27:37.722Z,89.81
2018-01-29T08:28:37.961Z,89.82
2018-01-29T08:29:37.649Z,89.94
2018-01-29T08:30:37.672Z,89.91
2018-01-29T08:31:37.688Z,89.78
2018-01-29T08:32:37.691Z,89.86
2018-01-29T08:33:37.842Z,89.73
2018-01-29T08:34:37.671Z,90.01
2018-01-29T08:35:37.684Z,90.12
2018-01-29T08:36:37.785Z,90.1
2018-01-29T08:37:37.669Z,90.1
2018-01-29T08:38:37.790Z,89.85
2018-01-29T08:39:37.719Z,89.88
2018-01-29T08:40:37.683Z,89.68
2018-01-29T08:41:37.776Z,89.75
2018-01-29T08:42:37.706Z,89.62
2018-01-29T08:43:37.773Z,89.62
2018-01-29T08:44:37.702Z,89.59
2018-01-29T08:45:37.671Z,89.48
2018-01-29T08:46:37.699Z,89.48
2018-01-29T08:47:37.704Z,89.6
2018-01-29T08:48:37.780Z,89.69
2018-01-29T08:49:37.704Z,89.68
2018-01-29T08:50:37.713Z,89.68
2018-01-29T08:51:37.733Z,89.7
2018-01-29T08:52:38.174Z,89.58
2018-01-29T08:53:37.731Z,89.49
2018-01-29T08:54:37.736Z,89.4
2018-01-29T08:55:37.699Z,89.69
2018-01-29T08:56:37.750Z,89.38
2018-01-29T08:57:37.812Z,89.22
2018-01-29T08:58:37.782Z,89.43
2018-01-29T08:59:37.742Z,89.32
2018-01-29T09:00:38.801Z,89.45
2018-01-29T09:01:37.681Z,89.19
2018-01-29T09:02:37.687Z,89.25
2018-01-29T09:03:37.818Z,89.25
2018-01-29T09:04:37.730Z,89.33
2018-01-29T09:05:38.130Z,89.21
2018-01-29T09:06:37.961Z,89.2
2018-01-29T09:07:37.869Z,89.01
2018-01-29T09:08:37.718Z,88.8
2018-01-29T09:09:37.775Z,88.86
2018-01-29T09:10:37.735Z,88.8
2018-01-29T09:11:37.780Z,88.73
2018-01-29T09:12:37.824Z,88.59
2018-01-29T09:13:37.725Z,88.76
2018-01-29T09:14:37.769Z,88.55
2018-01-29T09:15:37.736Z,88.52
2018-01-29T09:16:37.893Z,88.49
2018-01-29T09:17:37.762Z,88.54
2018-01-29T09:18:37.800Z,88.55
2018-01-29T09:19:37.741Z,88.48
2018-01-29T09:20:37.734Z,88.45
2018-01-29T09:21:37.765Z,88.52
2018-01-29T09:22:37.842Z,88.61
2018-01-29T09:23:37.759Z,88.63
2018-01-29T09:24:37.713Z,88.59
2018-01-29T09:25:37.782Z,88.51
2018-01-29T09:26:37.743Z,88.36
2018-01-29T09:27:37.807Z,88.31
2018-01-29T09:28:37.766Z,88.42
2018-01-29T09:29:37.781Z,88.49
2018-01-29T09:30:37.805Z,88.46
2018-01-29T09:31:37.810Z,88.39
2018-01-29T09:32:37.817Z,88.45
2018-01-29T09:33:37.894Z,88.36
2018-01-29T09:34:37.807Z,88.35
2018-01-29T09:35:37.808Z,88.35
2018-01-29T09:36:37.832Z,88.4
2018-01-29T09:37:37.843Z,88.43
2018-01-29T09:38:38.069Z,88.47
2018-01-29T09:39:37.794Z,88.45
2018-01-29T09:40:38.579Z,88.45
2018-01-29T09:41:37.956Z,88.32
2018-01-29T09:42:37.909Z,88.42
2018-01-29T09:43:37.861Z,88.27
2018-01-29T09:44:37.876Z,88.14
2018-01-29T09:45:37.847Z,88.2
2018-01-29T09:46:37.893Z,88.25
2018-01-29T09:47:37.796Z,88.21
2018-01-29T09:48:37.808Z,88.13
2018-01-29T09:49:37.872Z,88.23
2018-01-29T09:50:37.765Z,88.34
2018-01-29T09:51:38.377Z,88.33
2018-01-29T09:52:37.877Z,88.17
2018-01-29T09:53:37.872Z,88.06
2018-01-29T09:54:37.803Z,87.94
2018-01-29T09:55:37.803Z,88.05
2018-01-29T09:56:38.231Z,87.87
2018-01-29T09:57:38.189Z,88.25
2018-01-29T09:58:37.892Z,87.86
2018-01-29T09:59:37.779Z,87.81
2018-01-29T10:00:37.789Z,87.92
2018-01-29T10:01:37.866Z,87.96
2018-01-29T10:02:37.771Z,87.87
2018-01-29T10:03:38.086Z,87.87
2018-01-29T10:04:37.854Z,87.78
2018-01-29T10:05:37.805Z,87.86
2018-01-29T10:06:37.822Z,87.82
2018-01-29T10:07:37.834Z,87.76
2018-01-29T10:08:37.950Z,88.07
2018-01-29T10:09:37.820Z,87.61
2018-01-29T10:10:37.826Z,87.64
2018-01-29T10:11:37.782Z,87.57
2018-01-29T10:12:37.875Z,87.7
2018-01-29T10:13:37.873Z,87.64
2018-01-29T10:14:37.797Z,87.71
2018-01-29T10:15:37.792Z,87.52
2018-01-29T10:16:37.810Z,87.59
2018-01-29T10:17:37.827Z,87.35
2018-01-29T10:18:37.813Z,87.52
2018-01-29T10:19:37.887Z,87.36
2018-01-29T10:20:37.885Z,87.39
2018-01-29T10:21:37.832Z,87.46
2018-01-29T10:22:37.853Z,87.6
2018-01-29T10:23:37.900Z,87.6
2018-01-29T10:24:37.858Z,87.61
2018-01-29T10:25:37.864Z,87.53
2018-01-29T10:26:37.846Z,87.52
2018-01-29T10:27:37.874Z,87.56
2018-01-29T10:28:37.796Z,87.64
2018-01-29T10:29:37.809Z,87.67
2018-01-29T10:30:37.788Z,87.76
2018-01-29T10:31:37.804Z,87.66
2018-01-29T10:32:37.930Z,87.56
2018-01-29T10:33:37.900Z,87.59
2018-01-29T10:34:37.874Z,87.42
2018-01-29T10:35:37.936Z,87.63
2018-01-29T10:36:37.848Z,87.44
2018-01-29T10:37:37.922Z,87.32
2018-01-29T10:38:37.863Z,87.35
2018-01-29T10:39:37.928Z,87.55
2018-01-29T10:40:37.840Z,87.56
2018-01-29T10:41:37.851Z,87.38
2018-01-29T10:42:37.972Z,87.48
2018-01-29T10:43:37.895Z,87.56
2018-01-29T10:44:37.915Z,87.45
2018-01-29T10:45:37.969Z,87.4
2018-01-29T10:46:37.893Z,87.22
2018-01-29T10:47:38.004Z,87.36
2018-01-29T10:48:37.900Z,87.22
2018-01-29T10:49:38.376Z,87.24
2018-01-29T10:50:38.018Z,87.25
2018-01-29T10:51:37.920Z,86.85
2018-01-29T10:52:37.855Z,87.09
2018-01-29T10:53:37.906Z,86.87
2018-01-29T10:54:37.912Z,86.89
2018-01-29T10:55:37.942Z,86.99
2018-01-29T10:56:37.903Z,86.98
2018-01-29T11:00:38.240Z,86.84
2018-01-29T11:01:37.899Z,86.82
2018-01-29T11:02:37.961Z,86.83
2018-01-29T11:03:38.217Z,86.83
2018-01-29T11:04:38.030Z,86.81
2018-01-29T11:05:38.035Z,86.75
2018-01-29T11:06:38.035Z,86.57
2018-01-29T11:07:38.113Z,86.53
2018-01-29T11:08:38.150Z,86.46
2018-01-29T11:09:38.147Z,86.33
2018-01-29T11:10:38.152Z,86.3
2018-01-29T11:11:38.105Z,86.5
2018-01-29T11:12:38.005Z,86.46
2018-01-29T11:13:37.997Z,86.16
2018-01-29T11:14:38.145Z,85.96
2018-01-29T11:15:38.027Z,86.08
2018-01-29T11:16:38.080Z,86.19
2018-01-29T11:17:38.017Z,86.19
2018-01-29T11:18:38.074Z,86.24
2018-01-29T11:19:38.054Z,85.86
2018-01-29T11:20:38.042Z,85.97
2018-01-29T11:21:38.061Z,86.19
2018-01-29T11:22:38.095Z,86.26
2018-01-29T11:23:38.052Z,86.27
2018-01-29T11:24:38.232Z,86.04
2018-01-29T11:25:38.063Z,85.88
2018-01-29T11:26:38.125Z,85.84
2018-01-29T11:27:38.209Z,85.76
2018-01-29T11:28:38.088Z,85.5
2018-01-29T11:29:38.064Z,85.56
2018-01-29T11:30:37.993Z,85.71
2018-01-29T11:31:38.106Z,85.68
2018-01-29T11:32:38.028Z,85.46
2018-01-29T11:33:38.186Z,85.5
2018-01-29T11:34:38.474Z,85.92
2018-01-29T11:35:38.108Z,85.73
2018-01-29T11:36:38.174Z,85.72
2018-01-29T11:37:38.121Z,85.29
2018-01-29T11:38:38.126Z,85.71
2018-01-29T11:39:38.165Z,85.33
2018-01-29T11:40:38.164Z,85.53
2018-01-29T11:41:38.162Z,85.42
2018-01-29T11:42:38.169Z,85.01
2018-01-29T11:43:38.185Z,84.98
2018-01-29T11:44:38.161Z,85.1
2018-01-29T11:45:38.161Z,85.14
2018-01-29T11:46:38.218Z,85.06
2018-01-29T11:47:38.252Z,84.84
2018-01-29T11:48:38.337Z,84.94
2018-01-29T11:49:38.323Z,85.13
2018-01-29T11:50:38.124Z,85.21
2018-01-29T11:51:38.141Z,85.14
2018-01-29T11:52:38.202Z,85.36
2018-01-29T11:53:38.165Z,85.38
2018-01-29T11:54:38.191Z,85.04
2018-01-29T11:55:38.113Z,85.11
2018-01-29T11:56:38.142Z,85.19
2018-01-29T11:57:38.107Z,85.2
2018-01-29T11:58:38.218Z,85
2018-01-29T12:00:38.118Z,85.32
2018-01-29T12:01:38.094Z,85.21
2018-01-29T12:02:38.184Z,85.36
2018-01-29T12:03:38.813Z,85.49
2018-01-29T12:04:37.448Z,85.27
2018-01-29T12:05:37.458Z,85.31
2018-01-29T12:06:37.788Z,85.54
2018-01-29T12:07:37.438Z,85.53
2018-01-29T12:08:37.464Z,85.42
2018-01-29T12:09:37.472Z,85.18
2018-01-29T12:10:37.486Z,85.33
2018-01-29T12:11:37.493Z,85.37
2018-01-29T12:12:37.794Z,85.08
2018-01-29T12:13:37.459Z,85.17
2018-01-29T12:14:37.435Z,85.28
2018-01-29T12:15:37.500Z,85.31
2018-01-29T12:16:37.463Z,85.6
2018-01-29T12:17:37.563Z,85.47
2018-01-29T12:18:37.580Z,85.4
2018-01-29T12:19:37.467Z,85.6
2018-01-29T12:20:37.509Z,85.62
2018-01-29T12:21:37.548Z,85.34
2018-01-29T12:22:37.494Z,85.63
2018-01-29T12:23:37.531Z,85.62
2018-01-29T12:24:37.568Z,85.57
2018-01-29T12:25:37.521Z,85.72
2018-01-29T12:26:37.446Z,85.68
2018-01-29T12:27:37.488Z,85.62
2018-01-29T12:28:37.507Z,85.6
2018-01-29T12:29:37.436Z,85.5
2018-01-29T12:30:37.476Z,85.59
2018-01-29T12:31:37.779Z,85.44
2018-01-29T12:32:37.469Z,85.8
2018-01-29T12:33:37.465Z,85.7
2018-01-29T12:34:37.632Z,85.56
2018-01-29T12:35:37.617Z,85.3
2018-01-29T12:36:37.657Z,85.54
2018-01-29T12:37:37.643Z,85.57
2018-01-29T12:38:37.579Z,85.67
2018-01-29T12:39:37.607Z,85.58
2018-01-29T12:40:37.567Z,85.45
2018-01-29T12:41:37.610Z,85.28
2018-01-29T12:42:37.597Z,85.35
2018-01-29T12:43:37.673Z,85.45
2018-01-29T12:44:37.718Z,85.55
2018-01-29T12:45:37.579Z,85.49
2018-01-29T12:46:37.792Z,85.73
2018-01-29T12:47:37.763Z,85.79
2018-01-29T12:48:37.601Z,85.54
2018-01-29T12:49:37.613Z,85.45
2018-01-29T12:50:37.595Z,85.47
2018-01-29T12:51:38.103Z,85.37
2018-01-29T12:52:37.641Z,85.35
2018-01-29T12:53:37.637Z,85.29
2018-01-29T12:54:37.756Z,85.21
2018-01-29T12:55:37.566Z,85.15
2018-01-29T12:56:37.635Z,85.3
2018-01-29T12:57:37.592Z,85.21
2018-01-29T12:58:37.624Z,85.09
2018-01-29T12:59:37.770Z,85.24
2018-01-29T13:00:37.627Z,85.33
2018-01-29T13:01:37.641Z,85.36
2018-01-29T13:02:37.612Z,85.45
2018-01-29T13:03:37.771Z,85.54
2018-01-29T13:04:37.963Z,85.48